sensor_id;sensor_type;location;lat;lon;timestamp;P1;durP1;ratioP1;P2;durP2;ratioP2
46377;SDS011;32083;47.360;9.650;2022-07-06T04:02:39;6.00;;;5.40;;
46377;SDS011;32083;47.360;9.650;2022-07-06T04:05:05;5.55;;;5.05;;
46377;SDS011;32083;47.360;9.650;2022-07-06T04:07:31;4.82;;;4.38;;
46377;SDS011;32083;47.360;9.650;2022-07-06T04:09:57;6.05;;;5.10;;
46377;SDS011;32083;47.360;9.650;2022-07-06T04:12:23;6.78;;;5.25;;
46377;SDS011;32083;47.360;9.650;2022-07-06T04:14:49;5.57;;;4.97;;
46377;SDS011;32083;47.360;9.650;2022-07-06T04:17:15;5.50;;;4.93;;
46377;SDS011;32083;47.360;9.650;2022-07-06T04:20:00;6.53;;;4.43;;
46377;SDS011;32083;47.360;9.650;2022-07-06T04:22:26;5.43;;;4.82;;
46377;SDS011;32083;47.360;9.650;2022-07-06T04:24:52;6.75;;;5.78;;
46377;SDS011;32083;47.360;9.650;2022-07-06T04:27:18;10.60;;;7.18;;
46377;SDS011;32083;47.360;9.650;2022-07-06T15:46:13;4.07;;;1.80;;
46377;SDS011;32083;47.360;9.650;2022-07-06T15:48:39;4.70;;;1.75;;
46377;SDS011;32083;47.360;9.650;2022-07-06T15:51:05;9.27;;;2.20;;
46377;SDS011;32083;47.360;9.650;2022-07-06T15:53:31;1.42;;;1.20;;
46377;SDS011;32083;47.360;9.650;2022-07-06T15:55:58;2.63;;;1.63;;
46377;SDS011;32083;47.360;9.650;2022-07-06T15:58:25;3.60;;;1.50;;
46377;SDS011;32083;47.360;9.650;2022-07-06T16:00:51;2.33;;;1.73;;
46377;SDS011;32083;47.360;9.650;2022-07-06T16:03:18;5.88;;;2.13;;
46377;SDS011;32083;47.360;9.650;2022-07-06T16:05:44;4.95;;;1.67;;
46377;SDS011;32083;47.360;9.650;2022-07-06T16:08:10;1.83;;;1.42;;
46377;SDS011;32083;47.360;9.650;2022-07-06T16:10:36;1.95;;;1.58;;
46377;SDS011;32083;47.360;9.650;2022-07-06T16:13:03;4.13;;;1.73;;
46377;SDS011;32083;47.360;9.650;2022-07-06T16:15:29;5.20;;;2.50;;
46377;SDS011;32083;47.360;9.650;2022-07-06T16:17:55;3.45;;;1.42;;
46377;SDS011;32083;47.360;9.650;2022-07-06T16:20:21;4.43;;;2.13;;
46377;SDS011;32083;47.360;9.650;2022-07-06T16:22:47;5.05;;;1.50;;
46377;SDS011;32083;47.360;9.650;2022-07-06T16:25:13;3.08;;;1.88;;
46377;SDS011;32083;47.360;9.650;2022-07-06T16:27:40;1.95;;;1.65;;
46377;SDS011;32083;47.360;9.650;2022-07-06T16:30:06;2.47;;;1.50;;
46377;SDS011;32083;47.360;9.650;2022-07-06T16:32:34;2.72;;;1.70;;
46377;SDS011;32083;47.360;9.650;2022-07-06T16:35:00;3.90;;;1.80;;
46377;SDS011;32083;47.360;9.650;2022-07-06T16:37:27;2.30;;;2.10;;
46377;SDS011;32083;47.360;9.650;2022-07-06T16:39:53;2.28;;;1.63;;
46377;SDS011;32083;47.360;9.650;2022-07-06T16:42:19;3.33;;;1.40;;
46377;SDS011;32083;47.360;9.650;2022-07-06T16:44:45;1.70;;;1.60;;
46377;SDS011;32083;47.360;9.650;2022-07-06T16:47:13;3.28;;;1.70;;
46377;SDS011;32083;47.360;9.650;2022-07-06T16:49:39;4.10;;;1.50;;
46377;SDS011;32083;47.360;9.650;2022-07-06T16:52:06;5.68;;;1.88;;
46377;SDS011;32083;47.360;9.650;2022-07-06T16:54:32;4.38;;;1.80;;
46377;SDS011;32083;47.360;9.650;2022-07-06T16:56:58;4.35;;;2.38;;
46377;SDS011;32083;47.360;9.650;2022-07-06T16:59:24;4.18;;;2.30;;
46377;SDS011;32083;47.360;9.650;2022-07-06T17:01:50;2.28;;;1.63;;
46377;SDS011;32083;47.360;9.650;2022-07-06T17:04:16;4.50;;;1.77;;
46377;SDS011;32083;47.360;9.650;2022-07-06T17:06:42;4.70;;;1.63;;
46377;SDS011;32083;47.360;9.650;2022-07-06T17:09:08;2.55;;;1.70;;
46377;SDS011;32083;47.360;9.650;2022-07-06T17:11:34;2.67;;;1.42;;
46377;SDS011;32083;47.360;9.650;2022-07-06T17:14:00;3.60;;;1.80;;
46377;SDS011;32083;47.360;9.650;2022-07-06T17:16:26;3.60;;;2.08;;
46377;SDS011;32083;47.360;9.650;2022-07-06T17:18:52;2.45;;;1.80;;
46377;SDS011;32083;47.360;9.650;2022-07-06T17:21:18;3.13;;;1.98;;
46377;SDS011;32083;47.360;9.650;2022-07-06T17:23:50;3.47;;;1.88;;
46377;SDS011;32083;47.360;9.650;2022-07-06T17:26:16;7.07;;;1.80;;
46377;SDS011;32083;47.360;9.650;2022-07-06T17:28:42;2.38;;;1.85;;
46377;SDS011;32083;47.360;9.650;2022-07-06T17:31:08;2.80;;;1.42;;
46377;SDS011;32083;47.360;9.650;2022-07-06T17:33:34;2.17;;;1.67;;
46377;SDS011;32083;47.360;9.650;2022-07-06T17:36:00;3.25;;;1.42;;
46377;SDS011;32083;47.360;9.650;2022-07-06T17:38:26;2.83;;;1.92;;
46377;SDS011;32083;47.360;9.650;2022-07-06T17:40:52;6.13;;;1.80;;
46377;SDS011;32083;47.360;9.650;2022-07-06T17:43:18;2.75;;;2.00;;
46377;SDS011;32083;47.360;9.650;2022-07-06T17:45:44;4.47;;;2.08;;
46377;SDS011;32083;47.360;9.650;2022-07-06T17:48:10;3.03;;;1.92;;
46377;SDS011;32083;47.360;9.650;2022-07-06T17:50:36;2.47;;;1.88;;
46377;SDS011;32083;47.360;9.650;2022-07-06T17:53:03;2.47;;;1.70;;
46377;SDS011;32083;47.360;9.650;2022-07-06T17:55:29;4.90;;;1.88;;
46377;SDS011;32083;47.360;9.650;2022-07-06T17:57:56;2.53;;;1.55;;
46377;SDS011;32083;47.360;9.650;2022-07-06T18:00:22;2.58;;;1.90;;
46377;SDS011;32083;47.360;9.650;2022-07-06T18:02:48;4.05;;;2.00;;
46377;SDS011;32083;47.360;9.650;2022-07-06T18:05:14;5.45;;;1.98;;
46377;SDS011;32083;47.360;9.650;2022-07-06T18:07:41;2.85;;;2.00;;
46377;SDS011;32083;47.360;9.650;2022-07-06T18:10:08;4.10;;;2.08;;
46377;SDS011;32083;47.360;9.650;2022-07-06T18:12:34;4.25;;;3.17;;
46377;SDS011;32083;47.360;9.650;2022-07-06T18:15:00;18.88;;;12.77;;
46377;SDS011;32083;47.360;9.650;2022-07-06T18:17:26;38.10;;;27.13;;
46377;SDS011;32083;47.360;9.650;2022-07-06T18:19:52;26.75;;;17.48;;
46377;SDS011;32083;47.360;9.650;2022-07-06T18:22:19;36.95;;;24.45;;
46377;SDS011;32083;47.360;9.650;2022-07-06T18:24:45;28.02;;;21.35;;
46377;SDS011;32083;47.360;9.650;2022-07-06T18:27:11;17.15;;;15.45;;
46377;SDS011;32083;47.360;9.650;2022-07-06T18:29:38;11.40;;;7.03;;
46377;SDS011;32083;47.360;9.650;2022-07-06T18:32:04;4.05;;;2.72;;
46377;SDS011;32083;47.360;9.650;2022-07-06T18:34:30;2.33;;;2.10;;
46377;SDS011;32083;47.360;9.650;2022-07-06T18:36:57;2.00;;;1.77;;
46377;SDS011;32083;47.360;9.650;2022-07-06T18:39:22;3.10;;;2.65;;
46377;SDS011;32083;47.360;9.650;2022-07-06T18:41:49;6.35;;;4.95;;
46377;SDS011;32083;47.360;9.650;2022-07-06T18:44:15;4.82;;;2.63;;
46377;SDS011;32083;47.360;9.650;2022-07-06T18:46:41;3.85;;;2.50;;
46377;SDS011;32083;47.360;9.650;2022-07-06T18:49:07;4.82;;;3.20;;
46377;SDS011;32083;47.360;9.650;2022-07-06T18:51:35;6.82;;;4.30;;
46377;SDS011;32083;47.360;9.650;2022-07-06T18:54:03;7.28;;;6.50;;
46377;SDS011;32083;47.360;9.650;2022-07-06T18:56:29;5.93;;;4.45;;
46377;SDS011;32083;47.360;9.650;2022-07-06T18:58:55;4.40;;;4.00;;
46377;SDS011;32083;47.360;9.650;2022-07-06T19:01:21;4.35;;;3.60;;
46377;SDS011;32083;47.360;9.650;2022-07-06T19:03:47;3.42;;;2.78;;
46377;SDS011;32083;47.360;9.650;2022-07-06T19:06:17;3.38;;;3.00;;
46377;SDS011;32083;47.360;9.650;2022-07-06T19:08:44;3.65;;;2.90;;
46377;SDS011;32083;47.360;9.650;2022-07-06T19:11:11;2.97;;;2.67;;
46377;SDS011;32083;47.360;9.650;2022-07-06T19:13:37;3.05;;;2.47;;
46377;SDS011;32083;47.360;9.650;2022-07-06T19:16:06;3.50;;;2.50;;
46377;SDS011;32083;47.360;9.650;2022-07-06T19:18:33;5.25;;;3.15;;
46377;SDS011;32083;47.360;9.650;2022-07-06T19:20:59;5.80;;;3.30;;
46377;SDS011;32083;47.360;9.650;2022-07-06T19:23:26;4.18;;;2.80;;
46377;SDS011;32083;47.360;9.650;2022-07-06T19:25:53;6.03;;;2.75;;
46377;SDS011;32083;47.360;9.650;2022-07-06T19:28:19;4.05;;;2.35;;
46377;SDS011;32083;47.360;9.650;2022-07-06T19:30:45;5.05;;;2.58;;
46377;SDS011;32083;47.360;9.650;2022-07-06T19:33:11;6.78;;;2.45;;
46377;SDS011;32083;47.360;9.650;2022-07-06T19:35:36;3.03;;;2.35;;
46377;SDS011;32083;47.360;9.650;2022-07-06T19:38:04;7.55;;;3.92;;
46377;SDS011;32083;47.360;9.650;2022-07-06T19:40:29;3.45;;;3.03;;
46377;SDS011;32083;47.360;9.650;2022-07-06T19:42:57;4.70;;;2.83;;
46377;SDS011;32083;47.360;9.650;2022-07-06T19:45:22;5.13;;;2.60;;
46377;SDS011;32083;47.360;9.650;2022-07-06T19:47:48;8.60;;;7.72;;
46377;SDS011;32083;47.360;9.650;2022-07-06T19:50:14;5.03;;;4.20;;
46377;SDS011;32083;47.360;9.650;2022-07-06T19:52:40;3.67;;;2.83;;
46377;SDS011;32083;47.360;9.650;2022-07-06T19:55:06;4.18;;;3.20;;
46377;SDS011;32083;47.360;9.650;2022-07-06T19:57:32;5.35;;;3.05;;
46377;SDS011;32083;47.360;9.650;2022-07-06T19:59:57;5.22;;;2.70;;
46377;SDS011;32083;47.360;9.650;2022-07-06T20:02:23;3.88;;;3.30;;
46377;SDS011;32083;47.360;9.650;2022-07-06T20:04:49;8.73;;;3.63;;
46377;SDS011;32083;47.360;9.650;2022-07-06T20:07:16;6.07;;;3.50;;
46377;SDS011;32083;47.360;9.650;2022-07-06T20:09:42;5.47;;;3.17;;
46377;SDS011;32083;47.360;9.650;2022-07-06T20:12:08;4.10;;;2.90;;
46377;SDS011;32083;47.360;9.650;2022-07-06T20:14:34;4.50;;;3.75;;
46377;SDS011;32083;47.360;9.650;2022-07-06T20:17:01;3.63;;;3.10;;
46377;SDS011;32083;47.360;9.650;2022-07-06T20:19:27;4.00;;;3.30;;
46377;SDS011;32083;47.360;9.650;2022-07-06T20:21:55;3.67;;;3.15;;
46377;SDS011;32083;47.360;9.650;2022-07-06T20:24:21;4.82;;;3.33;;
46377;SDS011;32083;47.360;9.650;2022-07-06T20:26:47;5.32;;;3.70;;
46377;SDS011;32083;47.360;9.650;2022-07-06T20:29:14;4.60;;;3.22;;
46377;SDS011;32083;47.360;9.650;2022-07-06T20:31:40;3.60;;;3.30;;
46377;SDS011;32083;47.360;9.650;2022-07-06T20:34:06;9.23;;;3.63;;
46377;SDS011;32083;47.360;9.650;2022-07-06T20:36:32;4.45;;;2.83;;
46377;SDS011;32083;47.360;9.650;2022-07-06T20:38:58;6.03;;;3.40;;
46377;SDS011;32083;47.360;9.650;2022-07-06T20:41:25;4.45;;;3.03;;
46377;SDS011;32083;47.360;9.650;2022-07-06T20:43:51;3.97;;;3.58;;
46377;SDS011;32083;47.360;9.650;2022-07-06T20:46:17;5.05;;;3.30;;
46377;SDS011;32083;47.360;9.650;2022-07-06T20:48:43;5.18;;;3.42;;
46377;SDS011;32083;47.360;9.650;2022-07-06T20:51:09;5.25;;;3.63;;
46377;SDS011;32083;47.360;9.650;2022-07-06T20:53:35;5.72;;;3.10;;
46377;SDS011;32083;47.360;9.650;2022-07-06T20:56:02;5.45;;;3.72;;
46377;SDS011;32083;47.360;9.650;2022-07-06T20:58:28;3.60;;;3.25;;
46377;SDS011;32083;47.360;9.650;2022-07-06T21:00:54;5.35;;;3.63;;
46377;SDS011;32083;47.360;9.650;2022-07-06T21:03:21;6.30;;;3.85;;
46377;SDS011;32083;47.360;9.650;2022-07-06T21:05:47;6.72;;;4.32;;
46377;SDS011;32083;47.360;9.650;2022-07-06T21:08:13;4.13;;;3.72;;
46377;SDS011;32083;47.360;9.650;2022-07-06T21:10:39;4.32;;;3.92;;
46377;SDS011;32083;47.360;9.650;2022-07-06T21:13:05;6.40;;;3.80;;
46377;SDS011;32083;47.360;9.650;2022-07-06T21:15:31;4.05;;;3.65;;
46377;SDS011;32083;47.360;9.650;2022-07-06T21:17:57;5.75;;;4.40;;
46377;SDS011;32083;47.360;9.650;2022-07-06T21:20:23;6.85;;;3.97;;
46377;SDS011;32083;47.360;9.650;2022-07-06T21:22:49;9.60;;;4.18;;
46377;SDS011;32083;47.360;9.650;2022-07-06T21:25:15;4.43;;;4.03;;
46377;SDS011;32083;47.360;9.650;2022-07-06T21:27:41;5.25;;;4.07;;
46377;SDS011;32083;47.360;9.650;2022-07-06T21:30:08;4.32;;;3.92;;
46377;SDS011;32083;47.360;9.650;2022-07-06T21:32:34;5.03;;;3.60;;
46377;SDS011;32083;47.360;9.650;2022-07-06T21:35:00;5.75;;;3.60;;
46377;SDS011;32083;47.360;9.650;2022-07-06T21:37:27;4.13;;;3.60;;
46377;SDS011;32083;47.360;9.650;2022-07-06T21:39:54;6.22;;;3.72;;
46377;SDS011;32083;47.360;9.650;2022-07-06T21:42:20;10.82;;;3.47;;
46377;SDS011;32083;47.360;9.650;2022-07-06T21:44:46;4.90;;;3.55;;
46377;SDS011;32083;47.360;9.650;2022-07-06T21:47:13;5.07;;;3.60;;
46377;SDS011;32083;47.360;9.650;2022-07-06T21:49:39;5.75;;;3.50;;
46377;SDS011;32083;47.360;9.650;2022-07-06T21:52:05;5.22;;;3.50;;
46377;SDS011;32083;47.360;9.650;2022-07-06T21:54:31;5.40;;;4.45;;
46377;SDS011;32083;47.360;9.650;2022-07-06T21:56:57;4.07;;;3.67;;
46377;SDS011;32083;47.360;9.650;2022-07-06T21:59:24;3.60;;;3.30;;
46377;SDS011;32083;47.360;9.650;2022-07-06T22:01:53;5.38;;;3.85;;
46377;SDS011;32083;47.360;9.650;2022-07-06T22:04:19;4.78;;;3.33;;
46377;SDS011;32083;47.360;9.650;2022-07-06T22:06:45;5.25;;;3.45;;
46377;SDS011;32083;47.360;9.650;2022-07-06T22:09:11;5.68;;;3.45;;
46377;SDS011;32083;47.360;9.650;2022-07-06T22:11:37;5.32;;;3.70;;
46377;SDS011;32083;47.360;9.650;2022-07-06T22:14:03;5.53;;;4.03;;
46377;SDS011;32083;47.360;9.650;2022-07-06T22:16:29;4.50;;;4.10;;
46377;SDS011;32083;47.360;9.650;2022-07-06T22:18:55;5.78;;;3.83;;
46377;SDS011;32083;47.360;9.650;2022-07-06T22:21:22;4.20;;;3.78;;
46377;SDS011;32083;47.360;9.650;2022-07-06T22:23:48;4.43;;;3.78;;
46377;SDS011;32083;47.360;9.650;2022-07-06T22:26:15;5.03;;;3.55;;
46377;SDS011;32083;47.360;9.650;2022-07-06T22:28:45;7.15;;;4.80;;
46377;SDS011;32083;47.360;9.650;2022-07-06T22:31:13;6.57;;;4.70;;
46377;SDS011;32083;47.360;9.650;2022-07-06T22:33:39;6.68;;;4.55;;
46377;SDS011;32083;47.360;9.650;2022-07-06T22:36:06;4.50;;;4.10;;
46377;SDS011;32083;47.360;9.650;2022-07-06T22:38:33;4.68;;;4.28;;
46377;SDS011;32083;47.360;9.650;2022-07-06T22:40:59;5.03;;;3.60;;
46377;SDS011;32083;47.360;9.650;2022-07-06T22:43:28;6.68;;;4.20;;
46377;SDS011;32083;47.360;9.650;2022-07-06T22:45:56;5.07;;;4.07;;
46377;SDS011;32083;47.360;9.650;2022-07-06T22:48:23;6.82;;;4.53;;
46377;SDS011;32083;47.360;9.650;2022-07-06T22:50:49;6.75;;;4.18;;
46377;SDS011;32083;47.360;9.650;2022-07-06T22:53:15;5.93;;;4.68;;
46377;SDS011;32083;47.360;9.650;2022-07-06T22:55:41;4.75;;;4.07;;
46377;SDS011;32083;47.360;9.650;2022-07-06T22:58:07;7.32;;;4.30;;
